sensor_id;sensor_type;location;lat;lon;timestamp;temperature;humidity
21092;DHT22;10704;42.678;23.288;2023-04-08T00:00:50;5.10;99.90
21092;DHT22;10704;42.678;23.288;2023-04-08T00:03:17;5.10;99.90
21092;DHT22;10704;42.678;23.288;2023-04-08T00:05:43;5.10;99.90
21092;DHT22;10704;42.678;23.288;2023-04-08T00:08:09;5.10;99.90
21092;DHT22;10704;42.678;23.288;2023-04-08T00:10:34;5.10;99.90
21092;DHT22;10704;42.678;23.288;2023-04-08T00:13:01;5.10;99.90
21092;DHT22;10704;42.678;23.288;2023-04-08T00:15:27;5.10;99.90
21092;DHT22;10704;42.678;23.288;2023-04-08T00:17:53;5.10;99.90
21092;DHT22;10704;42.678;23.288;2023-04-08T00:20:22;5.10;99.90
21092;DHT22;10704;42.678;23.288;2023-04-08T00:22:48;4.90;99.90
21092;DHT22;10704;42.678;23.288;2023-04-08T00:25:14;4.90;99.90
21092;DHT22;10704;42.678;23.288;2023-04-08T00:27:40;4.90;99.90
21092;DHT22;10704;42.678;23.288;2023-04-08T00:30:07;4.90;99.90
21092;DHT22;10704;42.678;23.288;2023-04-08T00:32:37;4.90;99.90
21092;DHT22;10704;42.678;23.288;2023-04-08T00:35:03;4.90;99.90
21092;DHT22;10704;42.678;23.288;2023-04-08T00:37:30;5.00;99.90
21092;DHT22;10704;42.678;23.288;2023-04-08T00:39:56;5.00;99.90
21092;DHT22;10704;42.678;23.288;2023-04-08T00:42:22;5.00;99.90
21092;DHT22;10704;42.678;23.288;2023-04-08T00:44:48;5.00;99.90
21092;DHT22;10704;42.678;23.288;2023-04-08T00:47:14;5.00;99.90
21092;DHT22;10704;42.678;23.288;2023-04-08T00:49:42;5.10;99.90
21092;DHT22;10704;42.678;23.288;2023-04-08T00:52:08;5.30;99.90
21092;DHT22;10704;42.678;23.288;2023-04-08T00:54:36;5.20;99.90
21092;DHT22;10704;42.678;23.288;2023-04-08T00:57:03;5.20;99.90
21092;DHT22;10704;42.678;23.288;2023-04-08T00:59:30;5.10;99.90
21092;DHT22;10704;42.678;23.288;2023-04-08T01:05:29;5.20;99.90
21092;DHT22;10704;42.678;23.288;2023-04-08T01:08:01;5.30;99.90
21092;DHT22;10704;42.678;23.288;2023-04-08T01:10:30;5.30;99.90
21092;DHT22;10704;42.678;23.288;2023-04-08T01:13:02;5.40;99.90
21092;DHT22;10704;42.678;23.288;2023-04-08T01:15:31;5.50;99.90
21092;DHT22;10704;42.678;23.288;2023-04-08T01:17:58;5.40;99.90
21092;DHT22;10704;42.678;23.288;2023-04-08T01:20:26;5.30;99.90
21092;DHT22;10704;42.678;23.288;2023-04-08T01:25:31;5.40;99.90
21092;DHT22;10704;42.678;23.288;2023-04-08T01:28:03;5.40;99.90
21092;DHT22;10704;42.678;23.288;2023-04-08T01:30:30;5.40;99.90
21092;DHT22;10704;42.678;23.288;2023-04-08T01:32:58;5.30;99.90
21092;DHT22;10704;42.678;23.288;2023-04-08T01:35:25;5.40;99.90
21092;DHT22;10704;42.678;23.288;2023-04-08T01:37:52;5.20;99.90
21092;DHT22;10704;42.678;23.288;2023-04-08T01:40:21;5.30;99.90
21092;DHT22;10704;42.678;23.288;2023-04-08T01:42:47;5.30;99.90
21092;DHT22;10704;42.678;23.288;2023-04-08T01:45:15;5.20;99.90
21092;DHT22;10704;42.678;23.288;2023-04-08T01:47:43;5.10;99.90
21092;DHT22;10704;42.678;23.288;2023-04-08T01:50:12;5.20;99.90
21092;DHT22;10704;42.678;23.288;2023-04-08T01:52:40;5.20;99.90
21092;DHT22;10704;42.678;23.288;2023-04-08T01:55:08;5.30;99.90
21092;DHT22;10704;42.678;23.288;2023-04-08T01:57:36;5.20;99.90
21092;DHT22;10704;42.678;23.288;2023-04-08T02:00:09;5.20;99.90
21092;DHT22;10704;42.678;23.288;2023-04-08T02:02:50;5.10;99.90
21092;DHT22;10704;42.678;23.288;2023-04-08T02:05:18;5.20;99.90
21092;DHT22;10704;42.678;23.288;2023-04-08T02:07:44;5.30;99.90
21092;DHT22;10704;42.678;23.288;2023-04-08T02:10:11;5.30;99.90
21092;DHT22;10704;42.678;23.288;2023-04-08T02:12:38;5.20;99.90
21092;DHT22;10704;42.678;23.288;2023-04-08T02:15:10;5.20;99.90
21092;DHT22;10704;42.678;23.288;2023-04-08T02:17:52;5.10;99.90
21092;DHT22;10704;42.678;23.288;2023-04-08T02:20:29;5.10;99.90
21092;DHT22;10704;42.678;23.288;2023-04-08T02:25:25;5.00;99.90
21092;DHT22;10704;42.678;23.288;2023-04-08T02:27:53;4.90;99.90
21092;DHT22;10704;42.678;23.288;2023-04-08T02:30:21;4.90;99.90
21092;DHT22;10704;42.678;23.288;2023-04-08T02:32:47;4.80;99.90
21092;DHT22;10704;42.678;23.288;2023-04-08T02:35:15;4.80;99.90
21092;DHT22;10704;42.678;23.288;2023-04-08T02:37:45;4.70;99.90
21092;DHT22;10704;42.678;23.288;2023-04-08T02:40:25;4.70;99.90
21092;DHT22;10704;42.678;23.288;2023-04-08T02:42:52;4.60;99.90
21092;DHT22;10704;42.678;23.288;2023-04-08T02:45:18;4.60;99.90
21092;DHT22;10704;42.678;23.288;2023-04-08T02:47:45;4.50;99.90
21092;DHT22;10704;42.678;23.288;2023-04-08T02:50:11;4.60;99.90
21092;DHT22;10704;42.678;23.288;2023-04-08T02:52:37;4.70;99.90
21092;DHT22;10704;42.678;23.288;2023-04-08T02:55:03;4.70;99.90
21092;DHT22;10704;42.678;23.288;2023-04-08T02:57:31;4.70;99.90
21092;DHT22;10704;42.678;23.288;2023-04-08T02:59:57;4.60;99.90
21092;DHT22;10704;42.678;23.288;2023-04-08T03:02:23;4.60;99.90
21092;DHT22;10704;42.678;23.288;2023-04-08T03:04:49;4.60;99.90
21092;DHT22;10704;42.678;23.288;2023-04-08T03:07:15;4.60;99.90
21092;DHT22;10704;42.678;23.288;2023-04-08T03:09:41;4.60;99.90
21092;DHT22;10704;42.678;23.288;2023-04-08T03:12:07;4.60;99.90
21092;DHT22;10704;42.678;23.288;2023-04-08T03:14:33;4.60;99.90
21092;DHT22;10704;42.678;23.288;2023-04-08T03:16:59;4.50;99.90
21092;DHT22;10704;42.678;23.288;2023-04-08T03:19:25;4.50;99.90
21092;DHT22;10704;42.678;23.288;2023-04-08T03:21:50;4.60;99.90
21092;DHT22;10704;42.678;23.288;2023-04-08T03:24:16;4.60;99.90
21092;DHT22;10704;42.678;23.288;2023-04-08T03:26:42;4.70;99.90
21092;DHT22;10704;42.678;23.288;2023-04-08T03:29:08;4.60;99.90
21092;DHT22;10704;42.678;23.288;2023-04-08T03:31:36;4.50;99.90
21092;DHT22;10704;42.678;23.288;2023-04-08T03:34:02;4.50;99.90
21092;DHT22;10704;42.678;23.288;2023-04-08T03:36:28;4.50;99.90
21092;DHT22;10704;42.678;23.288;2023-04-08T03:38:57;4.50;99.90
21092;DHT22;10704;42.678;23.288;2023-04-08T03:41:25;4.60;99.90
21092;DHT22;10704;42.678;23.288;2023-04-08T03:43:52;4.70;99.90
21092;DHT22;10704;42.678;23.288;2023-04-08T03:46:18;4.60;99.90
21092;DHT22;10704;42.678;23.288;2023-04-08T03:48:44;4.70;99.90
21092;DHT22;10704;42.678;23.288;2023-04-08T03:51:09;4.80;99.90
21092;DHT22;10704;42.678;23.288;2023-04-08T03:53:35;4.80;99.90
21092;DHT22;10704;42.678;23.288;2023-04-08T03:56:01;4.90;99.90
21092;DHT22;10704;42.678;23.288;2023-04-08T03:58:29;4.90;99.90
21092;DHT22;10704;42.678;23.288;2023-04-08T04:00:55;4.90;99.90
21092;DHT22;10704;42.678;23.288;2023-04-08T04:03:21;5.00;99.90
21092;DHT22;10704;42.678;23.288;2023-04-08T04:05:47;5.10;99.90
21092;DHT22;10704;42.678;23.288;2023-04-08T04:08:13;5.00;99.90
21092;DHT22;10704;42.678;23.288;2023-04-08T04:10:39;5.00;99.90
21092;DHT22;10704;42.678;23.288;2023-04-08T04:13:05;5.00;99.90
21092;DHT22;10704;42.678;23.288;2023-04-08T04:15:31;4.90;99.90
21092;DHT22;10704;42.678;23.288;2023-04-08T04:17:57;5.00;99.90
21092;DHT22;10704;42.678;23.288;2023-04-08T04:20:23;5.00;99.90
21092;DHT22;10704;42.678;23.288;2023-04-08T04:22:50;4.90;99.90
21092;DHT22;10704;42.678;23.288;2023-04-08T04:25:16;4.90;99.90
21092;DHT22;10704;42.678;23.288;2023-04-08T04:27:42;4.80;99.90
21092;DHT22;10704;42.678;23.288;2023-04-08T04:30:08;4.80;99.90
21092;DHT22;10704;42.678;23.288;2023-04-08T04:32:35;4.70;99.90
21092;DHT22;10704;42.678;23.288;2023-04-08T04:35:01;4.70;99.90
21092;DHT22;10704;42.678;23.288;2023-04-08T04:37:27;4.70;99.90
21092;DHT22;10704;42.678;23.288;2023-04-08T04:39:53;4.80;99.90
21092;DHT22;10704;42.678;23.288;2023-04-08T04:42:19;4.80;99.90
21092;DHT22;10704;42.678;23.288;2023-04-08T04:44:45;4.80;99.90
21092;DHT22;10704;42.678;23.288;2023-04-08T04:47:12;4.70;99.90
21092;DHT22;10704;42.678;23.288;2023-04-08T04:49:38;4.70;99.90
21092;DHT22;10704;42.678;23.288;2023-04-08T04:52:04;4.70;99.90
21092;DHT22;10704;42.678;23.288;2023-04-08T04:54:31;4.70;99.90
21092;DHT22;10704;42.678;23.288;2023-04-08T04:56:57;4.80;99.90
21092;DHT22;10704;42.678;23.288;2023-04-08T04:59:23;4.80;99.90
21092;DHT22;10704;42.678;23.288;2023-04-08T05:01:49;4.90;99.90
21092;DHT22;10704;42.678;23.288;2023-04-08T05:04:15;4.90;99.90
21092;DHT22;10704;42.678;23.288;2023-04-08T05:06:41;4.80;99.90
21092;DHT22;10704;42.678;23.288;2023-04-08T05:09:07;4.80;99.90
21092;DHT22;10704;42.678;23.288;2023-04-08T05:11:33;4.80;99.90
21092;DHT22;10704;42.678;23.288;2023-04-08T05:13:59;5.00;99.90
21092;DHT22;10704;42.678;23.288;2023-04-08T05:16:25;5.10;99.90
21092;DHT22;10704;42.678;23.288;2023-04-08T05:18:51;5.00;99.90
21092;DHT22;10704;42.678;23.288;2023-04-08T05:21:17;5.00;99.90
21092;DHT22;10704;42.678;23.288;2023-04-08T05:23:43;5.10;99.90
21092;DHT22;10704;42.678;23.288;2023-04-08T05:26:09;5.20;99.90
21092;DHT22;10704;42.678;23.288;2023-04-08T05:28:35;5.20;99.90
21092;DHT22;10704;42.678;23.288;2023-04-08T05:31:01;5.20;99.90
21092;DHT22;10704;42.678;23.288;2023-04-08T05:33:27;5.30;99.90
21092;DHT22;10704;42.678;23.288;2023-04-08T05:35:53;5.50;99.90
21092;DHT22;10704;42.678;23.288;2023-04-08T05:38:19;5.50;99.90
21092;DHT22;10704;42.678;23.288;2023-04-08T05:40:45;5.70;99.90
21092;DHT22;10704;42.678;23.288;2023-04-08T05:43:11;5.90;99.90
21092;DHT22;10704;42.678;23.288;2023-04-08T05:45:39;6.00;99.90
21092;DHT22;10704;42.678;23.288;2023-04-08T05:48:05;6.10;99.90
21092;DHT22;10704;42.678;23.288;2023-04-08T05:50:31;6.10;99.90
21092;DHT22;10704;42.678;23.288;2023-04-08T05:52:59;6.20;99.90
21092;DHT22;10704;42.678;23.288;2023-04-08T05:55:25;6.20;99.90
21092;DHT22;10704;42.678;23.288;2023-04-08T05:57:51;6.20;99.90
21092;DHT22;10704;42.678;23.288;2023-04-08T06:00:17;6.20;99.90
21092;DHT22;10704;42.678;23.288;2023-04-08T06:02:44;6.10;99.90
21092;DHT22;10704;42.678;23.288;2023-04-08T06:05:10;6.20;99.90
21092;DHT22;10704;42.678;23.288;2023-04-08T06:07:36;6.20;99.90
21092;DHT22;10704;42.678;23.288;2023-04-08T06:10:02;6.20;99.90
21092;DHT22;10704;42.678;23.288;2023-04-08T06:12:29;6.40;99.90
21092;DHT22;10704;42.678;23.288;2023-04-08T06:14:56;6.40;99.90
21092;DHT22;10704;42.678;23.288;2023-04-08T06:17:22;6.60;99.90
21092;DHT22;10704;42.678;23.288;2023-04-08T06:19:48;6.70;99.90
21092;DHT22;10704;42.678;23.288;2023-04-08T06:22:14;6.90;99.90
21092;DHT22;10704;42.678;23.288;2023-04-08T06:24:40;7.00;99.90
21092;DHT22;10704;42.678;23.288;2023-04-08T06:27:06;7.20;99.90
21092;DHT22;10704;42.678;23.288;2023-04-08T06:29:32;7.30;99.90
21092;DHT22;10704;42.678;23.288;2023-04-08T06:31:58;7.50;99.90
21092;DHT22;10704;42.678;23.288;2023-04-08T06:34:24;7.60;99.90
21092;DHT22;10704;42.678;23.288;2023-04-08T06:36:50;7.80;99.90
21092;DHT22;10704;42.678;23.288;2023-04-08T06:39:17;7.80;99.90
21092;DHT22;10704;42.678;23.288;2023-04-08T06:41:45;7.90;99.90
21092;DHT22;10704;42.678;23.288;2023-04-08T06:44:46;8.00;99.90
21092;DHT22;10704;42.678;23.288;2023-04-08T06:47:12;7.90;99.90
21092;DHT22;10704;42.678;23.288;2023-04-08T06:49:38;7.90;99.90
21092;DHT22;10704;42.678;23.288;2023-04-08T06:52:04;7.90;99.90
21092;DHT22;10704;42.678;23.288;2023-04-08T06:54:31;7.70;99.90
21092;DHT22;10704;42.678;23.288;2023-04-08T06:56:57;7.70;99.90
21092;DHT22;10704;42.678;23.288;2023-04-08T06:59:23;7.80;99.90
21092;DHT22;10704;42.678;23.288;2023-04-08T07:01:49;8.00;99.90
21092;DHT22;10704;42.678;23.288;2023-04-08T07:04:15;8.10;99.90
21092;DHT22;10704;42.678;23.288;2023-04-08T07:06:41;8.20;99.90
21092;DHT22;10704;42.678;23.288;2023-04-08T07:09:07;8.20;99.90
21092;DHT22;10704;42.678;23.288;2023-04-08T07:11:33;7.90;99.90
21092;DHT22;10704;42.678;23.288;2023-04-08T07:13:59;8.00;99.90
21092;DHT22;10704;42.678;23.288;2023-04-08T07:16:25;8.10;99.90
21092;DHT22;10704;42.678;23.288;2023-04-08T07:18:51;8.00;99.90
21092;DHT22;10704;42.678;23.288;2023-04-08T07:21:18;8.10;99.90
21092;DHT22;10704;42.678;23.288;2023-04-08T07:23:44;8.10;99.90
21092;DHT22;10704;42.678;23.288;2023-04-08T07:26:10;8.10;99.90
21092;DHT22;10704;42.678;23.288;2023-04-08T07:28:38;8.20;99.90
21092;DHT22;10704;42.678;23.288;2023-04-08T07:31:13;8.40;99.90
21092;DHT22;10704;42.678;23.288;2023-04-08T07:33:40;8.50;99.90
21092;DHT22;10704;42.678;23.288;2023-04-08T07:36:08;8.60;99.90
21092;DHT22;10704;42.678;23.288;2023-04-08T07:38:34;8.90;99.90
21092;DHT22;10704;42.678;23.288;2023-04-08T07:41:00;9.00;99.90
21092;DHT22;10704;42.678;23.288;2023-04-08T07:43:26;9.10;99.90
21092;DHT22;10704;42.678;23.288;2023-04-08T07:45:52;9.50;99.90
21092;DHT22;10704;42.678;23.288;2023-04-08T07:48:18;9.80;99.90
21092;DHT22;10704;42.678;23.288;2023-04-08T07:50:44;10.20;99.90
21092;DHT22;10704;42.678;23.288;2023-04-08T07:53:11;10.20;99.90
21092;DHT22;10704;42.678;23.288;2023-04-08T07:55:37;9.90;99.90
21092;DHT22;10704;42.678;23.288;2023-04-08T07:58:04;9.80;99.90
21092;DHT22;10704;42.678;23.288;2023-04-08T08:00:31;10.00;99.90
21092;DHT22;10704;42.678;23.288;2023-04-08T08:02:57;9.90;99.90
21092;DHT22;10704;42.678;23.288;2023-04-08T08:05:23;10.00;99.90
21092;DHT22;10704;42.678;23.288;2023-04-08T08:07:49;10.20;99.90
21092;DHT22;10704;42.678;23.288;2023-04-08T08:10:15;10.20;99.90
21092;DHT22;10704;42.678;23.288;2023-04-08T08:12:41;10.00;99.90
21092;DHT22;10704;42.678;23.288;2023-04-08T08:15:07;10.10;99.90
21092;DHT22;10704;42.678;23.288;2023-04-08T08:17:33;10.20;99.90
21092;DHT22;10704;42.678;23.288;2023-04-08T08:19:59;10.20;99.90
21092;DHT22;10704;42.678;23.288;2023-04-08T08:22:26;10.20;99.90
21092;DHT22;10704;42.678;23.288;2023-04-08T08:24:59;10.30;99.90
21092;DHT22;10704;42.678;23.288;2023-04-08T08:27:25;10.40;99.90
21092;DHT22;10704;42.678;23.288;2023-04-08T08:29:50;10.50;99.90
21092;DHT22;10704;42.678;23.288;2023-04-08T08:32:17;10.50;99.90
21092;DHT22;10704;42.678;23.288;2023-04-08T08:34:43;10.50;99.90
21092;DHT22;10704;42.678;23.288;2023-04-08T08:37:09;10.70;99.90
21092;DHT22;10704;42.678;23.288;2023-04-08T08:39:35;10.70;99.90
21092;DHT22;10704;42.678;23.288;2023-04-08T08:42:01;10.70;99.90
21092;DHT22;10704;42.678;23.288;2023-04-08T08:44:29;10.70;99.90
21092;DHT22;10704;42.678;23.288;2023-04-08T08:46:55;10.70;99.90
21092;DHT22;10704;42.678;23.288;2023-04-08T08:49:21;10.80;99.90
21092;DHT22;10704;42.678;23.288;2023-04-08T08:51:49;10.80;99.90
21092;DHT22;10704;42.678;23.288;2023-04-08T08:54:17;10.80;99.90
21092;DHT22;10704;42.678;23.288;2023-04-08T08:56:47;10.70;99.90
21092;DHT22;10704;42.678;23.288;2023-04-08T08:59:16;10.50;99.90
21092;DHT22;10704;42.678;23.288;2023-04-08T09:01:42;10.40;99.90
21092;DHT22;10704;42.678;23.288;2023-04-08T09:04:19;10.30;99.90
21092;DHT22;10704;42.678;23.288;2023-04-08T09:09:50;10.60;99.90
21092;DHT22;10704;42.678;23.288;2023-04-08T09:12:16;11.10;99.90
21092;DHT22;10704;42.678;23.288;2023-04-08T09:14:42;11.70;99.90
21092;DHT22;10704;42.678;23.288;2023-04-08T09:17:08;11.90;99.90
21092;DHT22;10704;42.678;23.288;2023-04-08T09:19:34;12.20;99.90
21092;DHT22;10704;42.678;23.288;2023-04-08T09:22:08;12.60;98.70
21092;DHT22;10704;42.678;23.288;2023-04-08T09:24:34;12.80;98.10
21092;DHT22;10704;42.678;23.288;2023-04-08T09:27:02;13.00;97.30
21092;DHT22;10704;42.678;23.288;2023-04-08T09:29:28;12.90;96.40
21092;DHT22;10704;42.678;23.288;2023-04-08T09:31:56;13.00;95.60
21092;DHT22;10704;42.678;23.288;2023-04-08T09:34:23;13.20;95.50
21092;DHT22;10704;42.678;23.288;2023-04-08T09:36:50;13.50;93.60
21092;DHT22;10704;42.678;23.288;2023-04-08T09:39:17;13.70;93.20
21092;DHT22;10704;42.678;23.288;2023-04-08T09:41:43;14.30;91.70
21092;DHT22;10704;42.678;23.288;2023-04-08T09:44:10;14.30;90.30
21092;DHT22;10704;42.678;23.288;2023-04-08T09:49:25;15.60;84.80
21092;DHT22;10704;42.678;23.288;2023-04-08T09:52:14;16.30;81.10
21092;DHT22;10704;42.678;23.288;2023-04-08T09:54:54;16.70;77.20
21092;DHT22;10704;42.678;23.288;2023-04-08T09:57:39;16.90;75.50
21092;DHT22;10704;42.678;23.288;2023-04-08T10:00:14;16.40;75.70
21092;DHT22;10704;42.678;23.288;2023-04-08T10:05:34;15.40;77.50
21092;DHT22;10704;42.678;23.288;2023-04-08T10:08:02;15.30;78.40
21092;DHT22;10704;42.678;23.288;2023-04-08T10:10:29;14.70;79.50
21092;DHT22;10704;42.678;23.288;2023-04-08T10:12:56;14.40;80.80
21092;DHT22;10704;42.678;23.288;2023-04-08T10:18:29;14.50;81.70
21092;DHT22;10704;42.678;23.288;2023-04-08T10:20:46;14.80;82.00
21092;DHT22;10704;42.678;23.288;2023-04-08T10:23:14;15.50;79.50
21092;DHT22;10704;42.678;23.288;2023-04-08T10:25:45;15.50;78.80
21092;DHT22;10704;42.678;23.288;2023-04-08T10:30:46;15.10;79.80
21092;DHT22;10704;42.678;23.288;2023-04-08T10:36:11;14.20;82.00
21092;DHT22;10704;42.678;23.288;2023-04-08T10:38:37;13.70;83.30
21092;DHT22;10704;42.678;23.288;2023-04-08T10:41:04;13.40;84.20
21092;DHT22;10704;42.678;23.288;2023-04-08T10:43:33;13.30;84.80
21092;DHT22;10704;42.678;23.288;2023-04-08T10:45:59;13.40;85.80
21092;DHT22;10704;42.678;23.288;2023-04-08T10:48:26;14.00;85.50
21092;DHT22;10704;42.678;23.288;2023-04-08T10:51:03;15.80;83.10
21092;DHT22;10704;42.678;23.288;2023-04-08T10:53:35;17.30;76.20
21092;DHT22;10704;42.678;23.288;2023-04-08T10:56:06;16.30;75.50
21092;DHT22;10704;42.678;23.288;2023-04-08T10:58:32;15.30;78.70
21092;DHT22;10704;42.678;23.288;2023-04-08T11:01:05;15.00;81.00
21092;DHT22;10704;42.678;23.288;2023-04-08T11:03:35;16.10;77.00
21092;DHT22;10704;42.678;23.288;2023-04-08T11:06:01;15.70;75.30
21092;DHT22;10704;42.678;23.288;2023-04-08T11:08:31;14.80;77.30
21092;DHT22;10704;42.678;23.288;2023-04-08T11:11:01;14.10;80.10
21092;DHT22;10704;42.678;23.288;2023-04-08T11:13:29;13.70;82.20
21092;DHT22;10704;42.678;23.288;2023-04-08T11:15:59;13.60;83.50
21092;DHT22;10704;42.678;23.288;2023-04-08T11:18:27;13.70;83.10
21092;DHT22;10704;42.678;23.288;2023-04-08T11:20:53;13.50;82.80
21092;DHT22;10704;42.678;23.288;2023-04-08T11:23:19;14.00;83.30
21092;DHT22;10704;42.678;23.288;2023-04-08T11:25:49;14.80;80.40
21092;DHT22;10704;42.678;23.288;2023-04-08T11:28:16;14.90;78.70
21092;DHT22;10704;42.678;23.288;2023-04-08T11:30:42;15.40;78.20
21092;DHT22;10704;42.678;23.288;2023-04-08T11:33:09;16.00;76.00
21092;DHT22;10704;42.678;23.288;2023-04-08T11:35:44;16.10;74.10
21092;DHT22;10704;42.678;23.288;2023-04-08T11:38:10;15.70;73.20
21092;DHT22;10704;42.678;23.288;2023-04-08T11:40:37;14.70;75.70
21092;DHT22;10704;42.678;23.288;2023-04-08T11:43:09;14.60;76.70
21092;DHT22;10704;42.678;23.288;2023-04-08T11:45:40;14.70;76.00
21092;DHT22;10704;42.678;23.288;2023-04-08T11:48:10;14.20;77.40
21092;DHT22;10704;42.678;23.288;2023-04-08T11:50:37;14.80;76.70
21092;DHT22;10704;42.678;23.288;2023-04-08T11:53:02;16.10;74.40
21092;DHT22;10704;42.678;23.288;2023-04-08T11:55:30;15.70;72.40
21092;DHT22;10704;42.678;23.288;2023-04-08T11:58:02;14.80;73.00
21092;DHT22;10704;42.678;23.288;2023-04-08T12:00:29;13.90;75.70
21092;DHT22;10704;42.678;23.288;2023-04-08T12:02:56;13.80;76.30
21092;DHT22;10704;42.678;23.288;2023-04-08T12:05:22;13.80;76.20
21092;DHT22;10704;42.678;23.288;2023-04-08T12:07:51;13.30;77.10
21092;DHT22;10704;42.678;23.288;2023-04-08T12:10:18;13.20;78.70
21092;DHT22;10704;42.678;23.288;2023-04-08T12:12:44;12.90;80.30
21092;DHT22;10704;42.678;23.288;2023-04-08T12:15:10;12.50;82.50
21092;DHT22;10704;42.678;23.288;2023-04-08T12:17:36;12.50;82.60
21092;DHT22;10704;42.678;23.288;2023-04-08T12:20:04;12.60;81.40
21092;DHT22;10704;42.678;23.288;2023-04-08T12:22:30;12.30;81.30
21092;DHT22;10704;42.678;23.288;2023-04-08T12:24:56;12.00;81.80
21092;DHT22;10704;42.678;23.288;2023-04-08T12:27:22;12.40;82.20
21092;DHT22;10704;42.678;23.288;2023-04-08T12:29:48;12.30;81.70
21092;DHT22;10704;42.678;23.288;2023-04-08T12:32:15;12.40;82.30
21092;DHT22;10704;42.678;23.288;2023-04-08T12:34:47;12.50;82.90
21092;DHT22;10704;42.678;23.288;2023-04-08T12:37:13;12.50;84.00
21092;DHT22;10704;42.678;23.288;2023-04-08T12:39:40;12.40;84.00
21092;DHT22;10704;42.678;23.288;2023-04-08T12:42:07;12.30;84.80
21092;DHT22;10704;42.678;23.288;2023-04-08T12:44:33;12.00;85.40
21092;DHT22;10704;42.678;23.288;2023-04-08T12:47:00;12.00;86.60
21092;DHT22;10704;42.678;23.288;2023-04-08T12:49:26;11.80;87.20
21092;DHT22;10704;42.678;23.288;2023-04-08T12:51:52;11.70;88.90
21092;DHT22;10704;42.678;23.288;2023-04-08T12:54:18;11.50;88.80
21092;DHT22;10704;42.678;23.288;2023-04-08T12:56:45;11.50;89.10
21092;DHT22;10704;42.678;23.288;2023-04-08T12:59:11;11.30;89.10
21092;DHT22;10704;42.678;23.288;2023-04-08T13:01:37;11.20;90.10
21092;DHT22;10704;42.678;23.288;2023-04-08T13:04:02;11.20;91.40
21092;DHT22;10704;42.678;23.288;2023-04-08T13:06:28;11.20;96.20
21092;DHT22;10704;42.678;23.288;2023-04-08T13:08:54;11.10;98.80
21092;DHT22;10704;42.678;23.288;2023-04-08T13:11:20;11.10;99.90
21092;DHT22;10704;42.678;23.288;2023-04-08T13:13:46;11.20;99.90
21092;DHT22;10704;42.678;23.288;2023-04-08T13:16:13;11.60;99.90
21092;DHT22;10704;42.678;23.288;2023-04-08T13:18:40;12.00;99.90
21092;DHT22;10704;42.678;23.288;2023-04-08T13:21:06;12.20;99.90
21092;DHT22;10704;42.678;23.288;2023-04-08T13:23:33;12.10;99.90
21092;DHT22;10704;42.678;23.288;2023-04-08T13:26:00;12.30;99.90
21092;DHT22;10704;42.678;23.288;2023-04-08T13:28:26;12.30;99.90
21092;DHT22;10704;42.678;23.288;2023-04-08T13:30:52;12.20;99.90
21092;DHT22;10704;42.678;23.288;2023-04-08T13:33:18;12.20;99.90
21092;DHT22;10704;42.678;23.288;2023-04-08T13:35:44;12.20;99.90
21092;DHT22;10704;42.678;23.288;2023-04-08T13:38:10;12.00;99.90
21092;DHT22;10704;42.678;23.288;2023-04-08T13:40:37;11.90;99.90
21092;DHT22;10704;42.678;23.288;2023-04-08T13:43:03;12.00;99.90
21092;DHT22;10704;42.678;23.288;2023-04-08T13:45:29;12.40;99.90
21092;DHT22;10704;42.678;23.288;2023-04-08T13:47:55;13.00;99.90
21092;DHT22;10704;42.678;23.288;2023-04-08T13:50:21;13.30;99.90
21092;DHT22;10704;42.678;23.288;2023-04-08T13:52:48;14.60;99.90
21092;DHT22;10704;42.678;23.288;2023-04-08T13:55:14;15.00;97.70
21092;DHT22;10704;42.678;23.288;2023-04-08T13:57:40;15.30;93.60
21092;DHT22;10704;42.678;23.288;2023-04-08T14:00:07;15.60;92.50
21092;DHT22;10704;42.678;23.288;2023-04-08T14:02:35;16.40;93.60
21092;DHT22;10704;42.678;23.288;2023-04-08T14:05:01;16.50;87.40
21092;DHT22;10704;42.678;23.288;2023-04-08T14:07:27;16.40;85.60
21092;DHT22;10704;42.678;23.288;2023-04-08T14:09:53;16.20;85.60
21092;DHT22;10704;42.678;23.288;2023-04-08T14:12:19;16.30;90.30
21092;DHT22;10704;42.678;23.288;2023-04-08T14:14:45;15.80;88.00
21092;DHT22;10704;42.678;23.288;2023-04-08T14:17:11;14.70;92.80
21092;DHT22;10704;42.678;23.288;2023-04-08T14:19:37;14.10;93.70
21092;DHT22;10704;42.678;23.288;2023-04-08T14:22:03;14.20;93.60
21092;DHT22;10704;42.678;23.288;2023-04-08T14:24:29;14.00;93.20
21092;DHT22;10704;42.678;23.288;2023-04-08T14:26:55;13.80;94.90
21092;DHT22;10704;42.678;23.288;2023-04-08T14:29:22;13.90;95.00
21092;DHT22;10704;42.678;23.288;2023-04-08T14:31:48;14.00;95.70
21092;DHT22;10704;42.678;23.288;2023-04-08T14:34:14;14.60;95.10
21092;DHT22;10704;42.678;23.288;2023-04-08T14:36:40;14.60;94.00
21092;DHT22;10704;42.678;23.288;2023-04-08T14:39:06;13.80;95.90
21092;DHT22;10704;42.678;23.288;2023-04-08T14:41:32;14.40;94.60
21092;DHT22;10704;42.678;23.288;2023-04-08T14:43:58;14.10;94.30
21092;DHT22;10704;42.678;23.288;2023-04-08T14:46:25;14.00;94.40
21092;DHT22;10704;42.678;23.288;2023-04-08T14:48:51;13.80;94.40
21092;DHT22;10704;42.678;23.288;2023-04-08T14:51:21;13.50;95.40
21092;DHT22;10704;42.678;23.288;2023-04-08T14:54:07;12.40;97.60
21092;DHT22;10704;42.678;23.288;2023-04-08T14:56:34;12.20;98.80
21092;DHT22;10704;42.678;23.288;2023-04-08T14:59:00;12.00;99.90
21092;DHT22;10704;42.678;23.288;2023-04-08T15:01:26;12.00;99.90
21092;DHT22;10704;42.678;23.288;2023-04-08T15:03:53;11.60;99.90
21092;DHT22;10704;42.678;23.288;2023-04-08T15:06:19;11.50;99.90
21092;DHT22;10704;42.678;23.288;2023-04-08T15:08:46;11.60;99.90
21092;DHT22;10704;42.678;23.288;2023-04-08T15:11:12;11.40;99.90
21092;DHT22;10704;42.678;23.288;2023-04-08T15:13:37;11.30;99.90
21092;DHT22;10704;42.678;23.288;2023-04-08T15:16:04;11.20;99.90
21092;DHT22;10704;42.678;23.288;2023-04-08T15:18:30;11.00;99.90
21092;DHT22;10704;42.678;23.288;2023-04-08T15:20:56;10.80;99.90
21092;DHT22;10704;42.678;23.288;2023-04-08T15:23:22;10.60;99.90
21092;DHT22;10704;42.678;23.288;2023-04-08T15:25:48;10.70;99.90
21092;DHT22;10704;42.678;23.288;2023-04-08T15:28:14;10.80;99.90
21092;DHT22;10704;42.678;23.288;2023-04-08T15:30:41;11.10;99.90
21092;DHT22;10704;42.678;23.288;2023-04-08T15:33:07;11.30;99.90
21092;DHT22;10704;42.678;23.288;2023-04-08T15:35:33;11.30;99.90
21092;DHT22;10704;42.678;23.288;2023-04-08T15:38:02;11.40;99.90
21092;DHT22;10704;42.678;23.288;2023-04-08T15:40:31;11.40;99.90
21092;DHT22;10704;42.678;23.288;2023-04-08T15:43:07;11.20;99.90
21092;DHT22;10704;42.678;23.288;2023-04-08T15:45:42;11.20;99.90
21092;DHT22;10704;42.678;23.288;2023-04-08T15:48:11;11.10;99.90